createdAt,value
2023-08-04T00:00:20.092Z,2.08
2023-08-04T00:02:46.640Z,1.75
2023-08-04T00:05:13.050Z,2.00
2023-08-04T00:07:39.460Z,1.90
2023-08-04T00:10:06.440Z,2.00
2023-08-04T00:12:32.944Z,1.92
2023-08-04T00:14:59.448Z,1.70
2023-08-04T00:17:26.027Z,2.20
2023-08-04T00:19:52.442Z,1.98
2023-08-04T00:22:18.910Z,1.88
2023-08-04T00:24:45.957Z,2.25
2023-08-04T00:27:12.444Z,2.03
2023-08-04T00:29:38.936Z,2.17
2023-08-04T00:32:05.890Z,2.22
2023-08-04T00:34:32.346Z,1.90
2023-08-04T00:36:58.747Z,2.00
2023-08-04T00:39:25.139Z,1.80
2023-08-04T00:41:51.553Z,1.80
2023-08-04T00:44:17.982Z,1.88
2023-08-04T00:46:44.838Z,1.90
2023-08-04T00:49:11.679Z,1.90
2023-08-04T00:51:38.357Z,1.90
2023-08-04T00:54:05.364Z,2.30
2023-08-04T00:56:32.417Z,1.77
2023-08-04T00:58:59.287Z,1.90
2023-08-04T01:01:25.877Z,1.90
2023-08-04T01:03:54.424Z,2.22
2023-08-04T01:06:25.627Z,1.80
2023-08-04T01:09:07.330Z,1.58
2023-08-04T01:11:43.728Z,1.83
2023-08-04T01:16:38.094Z,1.88
2023-08-04T01:19:04.484Z,1.80
2023-08-04T01:21:41.145Z,1.92
2023-08-04T01:24:07.940Z,1.83
2023-08-04T01:26:37.383Z,1.88
2023-08-04T01:29:06.387Z,1.88
2023-08-04T01:31:33.422Z,1.83
2023-08-04T01:34:00.258Z,1.63
2023-08-04T01:36:26.738Z,1.80
2023-08-04T01:38:53.116Z,1.85
2023-08-04T01:41:19.741Z,1.80
2023-08-04T01:43:46.170Z,1.75
2023-08-04T01:46:12.592Z,1.60
2023-08-04T01:48:39.157Z,1.65
2023-08-04T01:51:05.619Z,1.40
2023-08-04T01:53:32.122Z,1.60
2023-08-04T01:55:58.611Z,1.80
2023-08-04T01:58:25.175Z,1.48
2023-08-04T02:00:52.201Z,1.55
2023-08-04T02:03:18.701Z,1.63
2023-08-04T02:05:51.753Z,1.73
2023-08-04T02:08:18.278Z,1.70
2023-08-04T02:10:51.366Z,1.50
2023-08-04T02:13:18.119Z,2.00
2023-08-04T02:15:44.613Z,1.77
2023-08-04T02:18:11.135Z,1.52
2023-08-04T02:20:37.667Z,1.70
2023-08-04T02:23:04.994Z,2.05
2023-08-04T02:25:31.457Z,1.50
2023-08-04T02:27:57.873Z,1.55
2023-08-04T02:30:24.304Z,1.70
2023-08-04T02:32:52.170Z,1.35
2023-08-04T02:35:18.926Z,1.52
2023-08-04T02:37:45.458Z,1.88
2023-08-04T02:40:12.428Z,1.63
2023-08-04T02:42:39.147Z,1.73
2023-08-04T02:45:06.810Z,1.25
2023-08-04T02:47:33.391Z,1.55
2023-08-04T02:49:59.842Z,1.48
2023-08-04T02:52:26.305Z,1.60
2023-08-04T02:54:55.248Z,1.40
2023-08-04T02:57:21.731Z,1.67
2023-08-04T02:59:48.157Z,1.40
2023-08-04T03:02:14.655Z,1.30
2023-08-04T03:04:41.118Z,1.58
2023-08-04T03:07:07.546Z,1.55
2023-08-04T03:09:33.991Z,1.60
2023-08-04T03:12:00.456Z,1.70
2023-08-04T03:14:26.945Z,1.65
2023-08-04T03:16:53.450Z,1.55
2023-08-04T03:19:19.913Z,1.58
2023-08-04T03:21:46.749Z,1.40
2023-08-04T03:24:13.373Z,1.17
2023-08-04T03:26:39.839Z,1.40
2023-08-04T03:29:06.430Z,1.33
2023-08-04T03:31:33.041Z,1.35
2023-08-04T03:33:59.519Z,1.58
2023-08-04T03:36:26.011Z,1.48
2023-08-04T03:38:52.397Z,1.48
2023-08-04T03:41:18.987Z,1.80
2023-08-04T03:43:45.609Z,1.40
2023-08-04T03:46:12.171Z,1.50
2023-08-04T03:48:38.669Z,1.33
2023-08-04T03:51:05.400Z,1.50
2023-08-04T03:53:31.925Z,1.35
2023-08-04T03:55:58.375Z,1.60
2023-08-04T03:58:24.775Z,1.52
2023-08-04T04:00:51.284Z,1.25
2023-08-04T04:03:17.819Z,1.42
2023-08-04T04:05:44.341Z,1.33
2023-08-04T04:08:10.741Z,1.50
2023-08-04T04:10:37.187Z,1.30
2023-08-04T04:13:04.126Z,1.27
2023-08-04T04:15:30.567Z,1.27
2023-08-04T04:17:57.036Z,1.58
2023-08-04T04:20:23.532Z,1.40
2023-08-04T04:22:49.940Z,1.65
2023-08-04T04:25:16.549Z,1.48
2023-08-04T04:27:43.038Z,1.15
2023-08-04T04:30:09.642Z,1.33
2023-08-04T04:32:36.152Z,1.92
2023-08-04T04:35:02.827Z,1.27
2023-08-04T04:37:29.258Z,1.52
2023-08-04T04:39:55.625Z,1.38
2023-08-04T04:42:22.475Z,1.30
2023-08-04T04:44:48.892Z,1.30
2023-08-04T04:47:15.880Z,1.25
2023-08-04T04:49:42.376Z,1.40
2023-08-04T04:52:20.854Z,2.00
2023-08-04T04:54:47.312Z,1.40
2023-08-04T04:57:13.672Z,1.23
2023-08-04T04:59:40.118Z,1.65
2023-08-04T05:02:06.747Z,1.45
2023-08-04T05:04:33.290Z,1.20
2023-08-04T05:06:59.776Z,1.42
2023-08-04T05:09:26.246Z,1.30
2023-08-04T05:11:52.790Z,1.38
2023-08-04T05:14:19.190Z,1.17
2023-08-04T05:16:46.224Z,1.27
2023-08-04T05:19:12.674Z,1.48
2023-08-04T05:22:29.444Z,1.50
2023-08-04T05:25:10.177Z,1.70
2023-08-04T05:31:03.704Z,1.15
2023-08-04T05:35:58.492Z,1.20
2023-08-04T05:38:25.556Z,1.17
2023-08-04T05:40:57.959Z,1.23
2023-08-04T05:43:24.913Z,1.20
2023-08-04T05:45:51.660Z,1.13
2023-08-04T05:48:18.489Z,1.50
2023-08-04T05:51:40.152Z,1.80
2023-08-04T05:54:04.548Z,1.30
2023-08-04T05:58:39.392Z,1.30
2023-08-04T06:00:18.582Z,1.30
2023-08-04T06:03:03.416Z,1.10
2023-08-04T06:05:30.245Z,1.25
2023-08-04T06:08:07.609Z,1.10
2023-08-04T06:10:41.387Z,1.70
2023-08-04T06:13:22.635Z,1.30
2023-08-04T06:15:49.205Z,0.95
2023-08-04T06:18:18.891Z,1.10
2023-08-04T06:20:48.623Z,1.20
2023-08-04T06:23:16.875Z,1.38
2023-08-04T06:25:48.748Z,1.60
2023-08-04T06:28:16.037Z,1.45
2023-08-04T06:30:42.820Z,1.20
2023-08-04T06:33:13.439Z,1.13
2023-08-04T06:35:45.608Z,1.05
2023-08-04T06:38:15.060Z,1.20
2023-08-04T06:41:02.755Z,1.30
2023-08-04T06:43:48.468Z,1.30
2023-08-04T06:46:18.959Z,1.48
2023-08-04T06:48:48.293Z,1.15
2023-08-04T06:51:29.156Z,1.10
2023-08-04T06:54:16.759Z,1.27
2023-08-04T06:56:55.594Z,1.10
2023-08-04T06:59:22.248Z,1.10
2023-08-04T07:01:49.015Z,1.25
2023-08-04T07:04:15.766Z,1.17
2023-08-04T07:09:08.804Z,1.10
2023-08-04T07:11:35.288Z,1.08
2023-08-04T07:14:01.750Z,1.10
2023-08-04T07:16:28.207Z,1.15
2023-08-04T07:18:54.737Z,1.30
2023-08-04T07:21:21.168Z,1.30
2023-08-04T07:23:47.632Z,1.10
2023-08-04T07:26:14.241Z,1.25
2023-08-04T07:28:40.682Z,1.15
2023-08-04T07:31:09.444Z,1.33
2023-08-04T07:33:37.402Z,1.13
2023-08-04T07:36:04.671Z,1.20
2023-08-04T07:38:32.253Z,1.20
2023-08-04T07:40:59.154Z,1.00
2023-08-04T07:43:26.626Z,1.60
2023-08-04T07:45:54.523Z,1.15
2023-08-04T07:48:21.833Z,1.30
2023-08-04T07:50:50.046Z,1.30
2023-08-04T07:53:16.590Z,1.15
2023-08-04T07:55:42.988Z,1.20
2023-08-04T07:58:10.509Z,1.30
2023-08-04T08:00:37.319Z,1.30
2023-08-04T08:03:04.181Z,1.30
2023-08-04T08:05:30.838Z,1.10
2023-08-04T08:07:57.362Z,1.25
2023-08-04T08:10:25.372Z,1.05
2023-08-04T08:12:52.090Z,1.40
2023-08-04T08:15:18.688Z,1.20
2023-08-04T08:17:45.243Z,1.20
2023-08-04T08:20:11.930Z,1.00
2023-08-04T08:22:38.638Z,0.93
2023-08-04T08:25:05.475Z,1.30
2023-08-04T08:27:31.940Z,1.27
2023-08-04T08:29:58.499Z,1.20
2023-08-04T08:32:24.962Z,1.20
2023-08-04T08:34:51.662Z,1.33
2023-08-04T08:37:18.202Z,1.30
2023-08-04T08:39:44.699Z,1.27
2023-08-04T08:42:11.370Z,1.10
2023-08-04T08:44:37.890Z,1.10
2023-08-04T08:47:04.550Z,1.10
2023-08-04T08:49:39.013Z,1.13
2023-08-04T08:52:10.397Z,1.13
2023-08-04T08:54:37.970Z,1.02
2023-08-04T08:57:06.722Z,0.98
2023-08-04T08:59:34.067Z,1.23
2023-08-04T09:02:03.632Z,1.00
2023-08-04T09:04:39.154Z,1.10
2023-08-04T09:07:06.144Z,1.20
2023-08-04T09:09:35.899Z,1.13
2023-08-04T09:12:02.897Z,1.00
2023-08-04T09:14:29.821Z,1.10
2023-08-04T09:16:56.281Z,1.20
2023-08-04T09:19:33.460Z,1.23
2023-08-04T09:21:59.983Z,1.08
2023-08-04T09:24:26.444Z,0.95
2023-08-04T09:26:52.884Z,1.00
2023-08-04T09:29:19.394Z,1.23
2023-08-04T09:31:49.808Z,1.15
2023-08-04T09:34:16.548Z,1.40
2023-08-04T09:36:45.604Z,0.80
2023-08-04T09:39:13.191Z,0.80
2023-08-04T09:41:43.952Z,1.38
2023-08-04T09:44:11.607Z,1.13
2023-08-04T09:46:51.567Z,1.00
2023-08-04T09:49:19.346Z,1.30
2023-08-04T09:51:48.050Z,1.70
2023-08-04T09:54:15.503Z,1.10
2023-08-04T09:56:42.532Z,1.20
2023-08-04T09:59:09.475Z,1.00
2023-08-04T10:01:36.310Z,1.00
2023-08-04T10:04:08.611Z,1.10
2023-08-04T10:06:36.350Z,1.17
2023-08-04T10:09:03.622Z,1.10
2023-08-04T10:11:32.636Z,1.20
2023-08-04T10:14:00.055Z,1.10
2023-08-04T10:16:32.171Z,1.10
2023-08-04T10:19:04.189Z,1.33
2023-08-04T10:21:39.869Z,1.30
2023-08-04T10:26:50.979Z,0.80
2023-08-04T10:29:18.936Z,1.00
2023-08-04T10:31:49.027Z,1.10
2023-08-04T10:34:27.598Z,1.10
2023-08-04T10:37:06.955Z,1.10
2023-08-04T10:39:36.760Z,1.02
2023-08-04T10:42:13.863Z,1.40
2023-08-04T10:44:56.499Z,1.20
2023-08-04T10:47:59.743Z,1.00
2023-08-04T10:50:31.947Z,0.95
2023-08-04T10:53:01.786Z,0.98
2023-08-04T10:55:28.558Z,1.10
2023-08-04T10:57:55.272Z,1.20
2023-08-04T11:00:21.960Z,1.13
2023-08-04T11:02:51.215Z,1.40
2023-08-04T11:05:17.928Z,1.60
2023-08-04T11:07:50.387Z,1.30
2023-08-04T11:10:17.028Z,1.35
2023-08-04T11:12:43.488Z,1.38
2023-08-04T11:15:11.085Z,1.45
2023-08-04T11:17:42.512Z,1.42
2023-08-04T11:22:47.675Z,1.40
2023-08-04T11:25:14.635Z,1.23
2023-08-04T11:27:42.926Z,1.30
2023-08-04T11:30:12.147Z,1.10
2023-08-04T11:32:41.523Z,1.40
2023-08-04T11:35:09.431Z,2.22
2023-08-04T11:37:36.139Z,2.85
2023-08-04T11:40:02.790Z,2.65
2023-08-04T11:42:29.322Z,2.78
2023-08-04T11:44:55.777Z,2.70
2023-08-04T11:47:24.913Z,2.55
2023-08-04T11:49:52.370Z,2.45
2023-08-04T11:52:19.961Z,2.40
2023-08-04T11:55:01.858Z,2.40
2023-08-04T11:57:28.420Z,3.03
2023-08-04T11:59:55.084Z,2.35
2023-08-04T12:02:22.756Z,2.13
2023-08-04T12:05:05.833Z,2.35
2023-08-04T12:07:33.509Z,2.47
2023-08-04T12:10:00.453Z,2.40
2023-08-04T12:12:40.612Z,2.00
2023-08-04T12:15:07.524Z,2.03
2023-08-04T12:17:42.597Z,2.05
2023-08-04T12:20:13.824Z,2.03
2023-08-04T12:22:46.938Z,2.25
2023-08-04T12:25:14.237Z,2.38
2023-08-04T12:27:43.587Z,2.25
2023-08-04T12:30:11.099Z,1.92
2023-08-04T12:32:37.823Z,2.47
2023-08-04T12:35:05.471Z,1.90
2023-08-04T12:37:32.175Z,2.20
2023-08-04T12:39:58.681Z,2.00
2023-08-04T12:42:25.633Z,1.88
2023-08-04T12:44:52.352Z,2.15
2023-08-04T12:47:18.875Z,1.98
2023-08-04T12:49:45.748Z,2.00
2023-08-04T12:52:12.285Z,2.30
2023-08-04T12:54:38.697Z,1.90
2023-08-04T12:57:05.349Z,1.92
2023-08-04T12:59:33.306Z,2.10
2023-08-04T13:02:00.641Z,1.98
2023-08-04T13:04:27.316Z,1.90
2023-08-04T13:06:53.915Z,1.80
2023-08-04T13:09:20.571Z,1.90
2023-08-04T13:11:47.426Z,1.67
2023-08-04T13:14:14.239Z,1.77
2023-08-04T13:16:43.560Z,1.90
2023-08-04T13:19:10.518Z,1.80
2023-08-04T13:21:37.801Z,1.42
2023-08-04T13:24:04.611Z,1.70
2023-08-04T13:26:31.051Z,1.50
2023-08-04T13:28:57.570Z,1.63
2023-08-04T13:31:24.057Z,1.67
2023-08-04T13:33:50.520Z,1.40
2023-08-04T13:36:17.009Z,1.52
2023-08-04T13:38:44.083Z,1.35
2023-08-04T13:41:10.667Z,1.30
2023-08-04T13:43:37.191Z,1.50
2023-08-04T13:46:03.836Z,1.35
2023-08-04T13:48:30.316Z,1.35
2023-08-04T13:50:56.798Z,1.60
2023-08-04T13:53:23.374Z,1.63
2023-08-04T13:55:49.903Z,1.45
2023-08-04T13:58:16.412Z,1.50
2023-08-04T14:00:42.859Z,1.30
2023-08-04T14:03:09.371Z,1.67
2023-08-04T14:05:35.884Z,1.55
2023-08-04T14:08:04.117Z,1.40
2023-08-04T14:10:30.910Z,1.20
2023-08-04T14:12:57.377Z,1.42
2023-08-04T14:15:25.441Z,1.40
2023-08-04T14:17:51.972Z,1.50
2023-08-04T14:20:21.053Z,1.45
2023-08-04T14:22:47.707Z,1.38
2023-08-04T14:25:14.176Z,1.73
2023-08-04T14:27:40.629Z,1.20
2023-08-04T14:30:07.566Z,1.45
2023-08-04T14:32:35.245Z,1.35
2023-08-04T14:35:01.923Z,1.42
2023-08-04T14:37:28.336Z,1.30
2023-08-04T14:39:54.710Z,1.33
2023-08-04T14:42:21.185Z,1.23
2023-08-04T14:44:48.038Z,1.50
2023-08-04T14:47:14.616Z,1.30
2023-08-04T14:49:41.242Z,1.35
2023-08-04T14:52:08.314Z,1.15
2023-08-04T14:54:34.824Z,1.25
2023-08-04T14:57:01.290Z,1.55
2023-08-04T14:59:27.861Z,1.30
2023-08-04T15:01:54.640Z,1.23
2023-08-04T15:04:21.128Z,1.42
2023-08-04T15:06:47.652Z,1.08
2023-08-04T15:09:14.192Z,1.10
2023-08-04T15:11:40.768Z,1.30
2023-08-04T15:14:07.525Z,1.02
2023-08-04T15:16:34.138Z,1.33
2023-08-04T15:19:00.560Z,1.30
2023-08-04T15:21:27.018Z,1.27
2023-08-04T15:23:53.488Z,1.25
2023-08-04T15:26:20.138Z,1.10
2023-08-04T15:28:50.887Z,1.45
2023-08-04T15:31:17.528Z,1.00
2023-08-04T15:33:44.091Z,1.27
2023-08-04T15:36:11.175Z,1.17
2023-08-04T15:38:37.756Z,1.20
2023-08-04T15:41:08.994Z,1.00
2023-08-04T15:43:38.974Z,2.08
2023-08-04T15:48:36.531Z,2.38
2023-08-04T15:51:03.208Z,2.47
2023-08-04T15:53:30.930Z,2.33
2023-08-04T15:55:57.674Z,2.45
2023-08-04T15:58:25.282Z,2.63
2023-08-04T16:00:52.209Z,2.53
2023-08-04T16:03:18.763Z,2.13
2023-08-04T16:05:46.709Z,2.38
2023-08-04T16:08:15.706Z,2.63
2023-08-04T16:10:42.239Z,2.38
2023-08-04T16:13:11.680Z,2.22
2023-08-04T16:16:01.577Z,2.50
2023-08-04T16:18:31.411Z,2.90
2023-08-04T16:20:58.673Z,2.92
2023-08-04T16:23:25.303Z,3.42
2023-08-04T16:25:51.886Z,3.30
2023-08-04T16:28:18.375Z,3.80
2023-08-04T16:30:44.852Z,3.22
2023-08-04T16:33:12.537Z,4.13
2023-08-04T16:35:42.820Z,2.90
2023-08-04T16:40:36.509Z,3.08
2023-08-04T16:43:03.496Z,2.72
2023-08-04T16:45:31.972Z,2.83
2023-08-04T16:47:58.974Z,2.85
2023-08-04T16:50:25.575Z,3.20
2023-08-04T16:52:52.168Z,3.25
2023-08-04T16:55:21.840Z,2.80
2023-08-04T16:57:48.290Z,2.95
2023-08-04T17:00:15.043Z,2.25
2023-08-04T17:02:43.163Z,2.70
2023-08-04T17:05:10.213Z,2.60
2023-08-04T17:07:36.734Z,2.58
2023-08-04T17:10:05.685Z,2.92
2023-08-04T17:12:32.886Z,2.75
2023-08-04T17:14:59.440Z,2.75
2023-08-04T17:17:25.989Z,2.42
2023-08-04T17:19:52.649Z,2.22
2023-08-04T17:22:20.075Z,2.45
2023-08-04T17:24:46.628Z,2.10
2023-08-04T17:27:13.060Z,2.05
2023-08-04T17:29:39.549Z,2.30
2023-08-04T17:32:06.342Z,1.85
2023-08-04T17:34:32.958Z,2.20
2023-08-04T17:36:59.398Z,1.95
2023-08-04T17:39:25.852Z,2.08
2023-08-04T17:41:52.286Z,1.80
2023-08-04T17:44:18.822Z,2.42
2023-08-04T17:46:45.310Z,1.73
2023-08-04T17:49:13.661Z,1.95
2023-08-04T17:51:40.177Z,2.13
2023-08-04T17:54:06.623Z,1.80
2023-08-04T17:56:33.232Z,2.00
2023-08-04T17:58:59.812Z,2.03
2023-08-04T18:01:26.341Z,1.70
2023-08-04T18:03:52.910Z,1.90
2023-08-04T18:06:19.463Z,1.75
2023-08-04T18:08:45.941Z,1.52
2023-08-04T18:11:12.362Z,1.70
2023-08-04T18:13:38.856Z,1.60
2023-08-04T18:16:05.306Z,1.88
2023-08-04T18:18:31.812Z,1.88
2023-08-04T18:20:59.468Z,1.80
2023-08-04T18:23:26.240Z,1.70
2023-08-04T18:26:02.023Z,1.80
2023-08-04T18:28:32.117Z,1.63
2023-08-04T18:31:04.644Z,1.85
2023-08-04T18:33:31.101Z,1.67
2023-08-04T18:35:58.645Z,1.90
2023-08-04T18:38:25.087Z,1.77
2023-08-04T18:40:51.713Z,2.13
2023-08-04T18:43:18.220Z,1.83
2023-08-04T18:45:44.898Z,1.60
2023-08-04T18:48:11.719Z,1.67
2023-08-04T18:50:38.333Z,1.85
2023-08-04T18:53:04.816Z,1.60
2023-08-04T18:55:31.323Z,1.55
2023-08-04T18:57:57.818Z,1.85
2023-08-04T19:00:25.642Z,2.03
2023-08-04T19:02:52.241Z,1.70
2023-08-04T19:05:18.752Z,1.75
2023-08-04T19:07:45.260Z,1.50
2023-08-04T19:10:11.779Z,1.80
2023-08-04T19:12:38.290Z,1.73
2023-08-04T19:15:05.623Z,1.77
2023-08-04T19:17:32.105Z,1.85
2023-08-04T19:19:58.543Z,2.47
2023-08-04T19:22:26.029Z,1.83
2023-08-04T19:24:52.723Z,1.67
2023-08-04T19:27:20.181Z,1.58
2023-08-04T19:29:46.714Z,1.65
2023-08-04T19:32:13.185Z,1.52
2023-08-04T19:34:40.107Z,1.42
2023-08-04T19:37:06.968Z,1.55
2023-08-04T19:39:33.417Z,1.50
2023-08-04T19:41:59.879Z,1.52
2023-08-04T19:44:26.381Z,1.63
2023-08-04T19:46:54.236Z,1.70
2023-08-04T19:49:20.717Z,1.80
2023-08-04T19:51:47.194Z,2.13
2023-08-04T19:54:22.102Z,1.70
2023-08-04T19:56:51.844Z,1.58
2023-08-04T19:59:18.701Z,1.33
2023-08-04T20:01:45.366Z,1.50
2023-08-04T20:04:11.906Z,1.80
2023-08-04T20:06:38.461Z,1.83
2023-08-04T20:09:05.563Z,1.83
2023-08-04T20:11:32.030Z,1.45
2023-08-04T20:13:58.808Z,1.55
2023-08-04T20:16:25.727Z,1.50
2023-08-04T20:18:52.234Z,1.55
2023-08-04T20:21:21.968Z,1.35
2023-08-04T20:23:48.618Z,1.67
2023-08-04T20:26:15.655Z,1.60
2023-08-04T20:28:43.507Z,1.38
2023-08-04T20:31:11.726Z,1.27
2023-08-04T20:33:40.488Z,1.60
2023-08-04T20:36:11.958Z,1.52
2023-08-04T20:38:39.304Z,1.63
2023-08-04T20:41:08.635Z,1.67
2023-08-04T20:43:36.883Z,1.55
2023-08-04T20:46:03.938Z,1.60
2023-08-04T20:48:30.440Z,1.70
2023-08-04T20:50:57.327Z,1.48
2023-08-04T20:53:24.614Z,1.45
2023-08-04T20:55:52.979Z,1.85
2023-08-04T20:58:21.128Z,1.92
2023-08-04T21:00:48.047Z,1.60
2023-08-04T21:03:14.802Z,1.60
2023-08-04T21:05:41.991Z,1.30
2023-08-04T21:08:08.610Z,1.30
2023-08-04T21:10:35.037Z,1.40
2023-08-04T21:13:01.743Z,1.40
2023-08-04T21:15:29.046Z,1.05
2023-08-04T21:17:55.513Z,1.42
2023-08-04T21:20:22.067Z,1.48
2023-08-04T21:22:48.569Z,1.50
2023-08-04T21:25:15.227Z,1.70
2023-08-04T21:27:42.228Z,1.63
2023-08-04T21:30:09.204Z,1.45
2023-08-04T21:32:35.755Z,1.63
2023-08-04T21:35:02.281Z,1.45
2023-08-04T21:37:28.774Z,1.40
2023-08-04T21:39:55.614Z,1.35
2023-08-04T21:42:22.794Z,1.48
2023-08-04T21:44:56.666Z,1.42
2023-08-04T21:47:23.379Z,1.58
2023-08-04T21:49:50.691Z,1.40
2023-08-04T21:52:17.227Z,1.88
2023-08-04T21:54:43.758Z,1.42
2023-08-04T21:57:10.201Z,1.30
2023-08-04T21:59:36.712Z,1.30
2023-08-04T22:02:03.294Z,1.45
2023-08-04T22:04:29.896Z,1.55
2023-08-04T22:06:56.376Z,1.30
2023-08-04T22:09:22.976Z,1.52
2023-08-04T22:11:49.617Z,1.30
2023-08-04T22:14:17.070Z,1.05
2023-08-04T22:16:43.739Z,1.38
2023-08-04T22:19:10.266Z,1.55
2023-08-04T22:21:36.715Z,1.55
2023-08-04T22:24:03.297Z,1.30
2023-08-04T22:26:29.738Z,1.27
2023-08-04T22:28:56.244Z,1.27
2023-08-04T22:31:22.940Z,1.33
2023-08-04T22:33:49.517Z,1.67
2023-08-04T22:36:16.063Z,1.20
2023-08-04T22:38:42.576Z,1.60
2023-08-04T22:41:08.984Z,1.42
2023-08-04T22:43:35.473Z,1.50
2023-08-04T22:46:03.150Z,1.20
2023-08-04T22:48:29.723Z,1.50
2023-08-04T22:50:56.341Z,1.20
2023-08-04T22:53:22.785Z,1.20
2023-08-04T22:55:49.240Z,1.20
2023-08-04T22:58:15.654Z,1.33
2023-08-04T23:00:42.195Z,1.17
2023-08-04T23:03:10.293Z,1.30
2023-08-04T23:05:36.827Z,1.40
2023-08-04T23:08:03.311Z,1.20
2023-08-04T23:10:29.764Z,1.30
2023-08-04T23:12:56.317Z,1.17
2023-08-04T23:15:22.817Z,1.02
2023-08-04T23:17:49.407Z,1.13
2023-08-04T23:20:15.882Z,1.33
2023-08-04T23:22:42.329Z,1.13
2023-08-04T23:25:09.018Z,1.40
2023-08-04T23:27:35.432Z,0.98
2023-08-04T23:30:01.844Z,1.30
2023-08-04T23:32:28.280Z,1.40
2023-08-04T23:34:54.700Z,1.30
2023-08-04T23:37:21.150Z,1.15
2023-08-04T23:39:48.003Z,1.10
2023-08-04T23:42:14.481Z,1.30
2023-08-04T23:44:40.875Z,1.30
2023-08-04T23:47:07.289Z,1.02
2023-08-04T23:49:33.805Z,1.30
2023-08-04T23:52:00.240Z,1.13
2023-08-04T23:54:26.738Z,1.20
2023-08-04T23:56:53.140Z,1.52
2023-08-04T23:59:19.624Z,1.30
